createdAt,value
2023-01-11T00:00:41.975Z,3.00
2023-01-11T00:03:44.043Z,2.90
2023-01-11T00:06:46.993Z,2.90
2023-01-11T00:09:49.201Z,2.90
2023-01-11T00:12:51.267Z,3.00
2023-01-11T00:15:53.392Z,3.00
2023-01-11T00:18:56.117Z,2.90
2023-01-11T00:21:58.240Z,2.80
2023-01-11T00:25:00.317Z,2.80
2023-01-11T00:28:02.385Z,2.70
2023-01-11T00:31:04.666Z,2.80
2023-01-11T00:34:06.866Z,2.70
2023-01-11T00:37:10.644Z,2.80
2023-01-11T00:40:13.416Z,2.70
2023-01-11T00:43:33.926Z,2.80
2023-01-11T00:46:54.565Z,2.80
2023-01-11T00:49:56.644Z,2.80
2023-01-11T00:52:59.683Z,2.80
2023-01-11T00:56:01.733Z,2.80
2023-01-11T00:59:07.363Z,2.70
2023-01-11T01:02:11.525Z,2.60
2023-01-11T01:05:14.037Z,2.60
2023-01-11T01:08:16.264Z,2.70
2023-01-11T01:11:18.673Z,2.70
2023-01-11T01:14:33.151Z,2.70
2023-01-11T01:17:35.333Z,2.60
2023-01-11T01:20:37.836Z,2.60
2023-01-11T01:23:39.963Z,2.50
2023-01-11T01:26:42.331Z,2.50
2023-01-11T01:29:44.852Z,2.40
2023-01-11T01:32:46.927Z,2.30
2023-01-11T01:35:49.032Z,2.30
2023-01-11T01:38:51.365Z,2.30
2023-01-11T01:41:53.368Z,2.20
2023-01-11T01:45:00.498Z,2.20
2023-01-11T01:48:05.921Z,2.10
2023-01-11T01:51:11.298Z,2.10
2023-01-11T01:54:22.871Z,2.00
2023-01-11T01:57:30.081Z,2.00
2023-01-11T02:00:33.385Z,2.10
2023-01-11T02:03:35.449Z,2.20
2023-01-11T02:06:38.005Z,2.30
2023-01-11T02:10:11.611Z,2.40
2023-01-11T02:13:14.556Z,2.40
2023-01-11T02:16:16.596Z,2.40
2023-01-11T02:19:23.132Z,2.40
2023-01-11T02:22:54.986Z,2.40
2023-01-11T02:26:02.953Z,2.40
2023-01-11T02:29:18.063Z,2.40
2023-01-11T02:33:03.263Z,2.40
2023-01-11T02:36:09.626Z,2.30
2023-01-11T02:39:26.598Z,2.30
2023-01-11T02:43:21.453Z,2.30
2023-01-11T02:46:34.827Z,2.20
2023-01-11T02:49:43.928Z,2.10
2023-01-11T02:53:38.023Z,2.10
2023-01-11T02:56:47.105Z,2.00
2023-01-11T02:59:50.829Z,2.00
2023-01-11T03:03:24.677Z,1.90
2023-01-11T03:06:32.180Z,1.90
2023-01-11T03:10:08.382Z,1.90
2023-01-11T03:13:37.045Z,2.00
2023-01-11T03:16:51.292Z,2.00
2023-01-11T03:20:07.323Z,2.00
2023-01-11T03:23:14.817Z,2.00
2023-01-11T03:26:19.322Z,2.00
2023-01-11T03:29:31.117Z,2.00
2023-01-11T03:32:35.816Z,2.00
2023-01-11T03:35:51.953Z,2.00
2023-01-11T03:39:23.028Z,1.90
2023-01-11T03:42:28.327Z,1.90
2023-01-11T03:45:34.184Z,1.90
2023-01-11T03:48:52.060Z,1.90
2023-01-11T03:51:56.540Z,1.80
2023-01-11T03:54:59.747Z,1.80
2023-01-11T03:58:01.887Z,1.70
2023-01-11T04:01:04.385Z,1.70
2023-01-11T04:04:06.971Z,1.60
2023-01-11T04:07:09.107Z,1.50
2023-01-11T04:10:12.009Z,1.50
2023-01-11T04:13:14.013Z,1.30
2023-01-11T04:16:16.188Z,1.30
2023-01-11T04:19:18.327Z,1.30
2023-01-11T04:22:20.499Z,1.30
2023-01-11T04:25:22.564Z,1.40
2023-01-11T04:28:45.817Z,1.40
2023-01-11T04:31:47.935Z,1.50
2023-01-11T04:34:50.608Z,1.50
2023-01-11T04:37:57.050Z,1.50
2023-01-11T04:41:17.886Z,1.60
2023-01-11T04:44:19.893Z,1.70
2023-01-11T04:47:24.367Z,1.70
2023-01-11T04:50:27.976Z,1.40
2023-01-11T04:53:30.112Z,1.10
2023-01-11T04:56:32.633Z,0.80
2023-01-11T04:59:34.785Z,0.80
2023-01-11T05:02:38.014Z,0.80
2023-01-11T05:05:40.132Z,0.70
2023-01-11T05:08:46.272Z,0.80
2023-01-11T05:11:48.514Z,0.70
2023-01-11T05:14:50.568Z,0.50
2023-01-11T05:17:52.688Z,0.30
2023-01-11T05:20:54.799Z,0.10
2023-01-11T05:23:58.349Z,0.00
2023-01-11T05:27:00.554Z,-0.10
2023-01-11T05:30:02.727Z,-0.20
2023-01-11T05:33:06.782Z,-0.20
2023-01-11T05:36:13.599Z,-0.30
2023-01-11T05:39:15.679Z,-0.40
2023-01-11T05:42:17.815Z,-0.40
2023-01-11T05:45:29.122Z,-0.40
2023-01-11T05:48:31.481Z,-0.50
2023-01-11T05:51:34.427Z,-0.50
2023-01-11T05:54:37.352Z,-0.50
2023-01-11T05:57:46.750Z,-0.50
2023-01-11T06:00:50.365Z,-0.60
2023-01-11T06:03:52.811Z,-0.70
2023-01-11T06:06:54.993Z,-0.70
2023-01-11T06:09:57.231Z,-0.80
2023-01-11T06:13:17.794Z,-0.80
2023-01-11T06:16:21.077Z,-0.80
2023-01-11T06:19:23.296Z,-0.70
2023-01-11T06:22:25.405Z,-0.80
2023-01-11T06:25:28.282Z,-0.90
2023-01-11T06:28:31.204Z,-1.10
2023-01-11T06:31:33.312Z,-1.20
2023-01-11T06:34:35.412Z,-1.20
2023-01-11T06:37:37.604Z,-1.10
2023-01-11T06:40:41.149Z,-1.20
2023-01-11T06:43:43.350Z,-1.10
2023-01-11T06:46:45.547Z,-1.20
2023-01-11T06:49:47.668Z,-1.20
2023-01-11T06:52:54.440Z,-1.20
2023-01-11T06:55:58.295Z,-1.20
2023-01-11T06:59:00.467Z,-1.20
2023-01-11T07:02:02.776Z,-1.20
2023-01-11T07:05:05.446Z,-1.10
2023-01-11T07:08:08.129Z,-1.10
2023-01-11T07:11:10.353Z,-1.10
2023-01-11T07:14:15.156Z,-1.10
2023-01-11T07:17:17.251Z,-1.20
2023-01-11T07:20:19.825Z,-1.00
2023-01-11T07:23:22.219Z,-0.70
2023-01-11T07:26:26.510Z,-0.50
2023-01-11T07:29:29.402Z,-0.20
2023-01-11T07:32:31.701Z,0.10
2023-01-11T07:35:33.825Z,0.30
2023-01-11T07:38:35.964Z,0.40
2023-01-11T07:41:56.668Z,0.50
2023-01-11T07:44:58.881Z,0.60
2023-01-11T07:48:02.046Z,0.90
2023-01-11T07:51:04.200Z,1.20
2023-01-11T07:54:06.856Z,1.30
2023-01-11T07:57:08.989Z,1.30
2023-01-11T08:00:11.815Z,1.30
2023-01-11T08:03:14.484Z,1.30
2023-01-11T08:06:17.084Z,1.20
2023-01-11T08:09:19.405Z,1.40
2023-01-11T08:12:40.018Z,1.50
2023-01-11T08:15:44.985Z,1.80
2023-01-11T08:18:47.178Z,1.90
2023-01-11T08:21:50.864Z,1.90
2023-01-11T08:24:53.005Z,1.90
2023-01-11T08:27:55.119Z,2.00
2023-01-11T08:30:57.252Z,2.10
2023-01-11T08:33:59.434Z,2.30
2023-01-11T08:37:02.272Z,2.60
2023-01-11T08:40:05.241Z,2.60
2023-01-11T08:43:07.452Z,2.90
2023-01-11T08:46:10.350Z,3.30
2023-01-11T08:49:12.918Z,3.60
2023-01-11T08:52:15.043Z,3.70
2023-01-11T08:55:17.252Z,3.80
2023-01-11T08:58:21.531Z,4.00
2023-01-11T09:01:23.748Z,4.40
2023-01-11T09:04:26.596Z,4.90
2023-01-11T09:07:28.667Z,5.40
2023-01-11T09:10:34.908Z,6.40
2023-01-11T09:13:37.082Z,7.70
2023-01-11T09:16:39.338Z,9.10
2023-01-11T09:19:41.451Z,10.20
2023-01-11T09:22:52.894Z,10.70
2023-01-11T09:25:56.031Z,10.90
2023-01-11T09:28:58.302Z,11.00
2023-01-11T09:32:00.517Z,11.00
2023-01-11T09:35:04.660Z,11.30
2023-01-11T09:38:06.788Z,11.40
2023-01-11T09:41:17.183Z,11.50
2023-01-11T09:44:25.546Z,11.30
2023-01-11T09:47:38.650Z,11.10
2023-01-11T09:50:47.875Z,10.90
2023-01-11T09:53:52.359Z,10.20
2023-01-11T09:57:10.713Z,10.00
2023-01-11T10:00:22.347Z,9.30
2023-01-11T10:03:51.780Z,8.70
2023-01-11T10:07:23.170Z,8.20
2023-01-11T10:18:23.557Z,7.30
2023-01-11T10:18:38.532Z,7.10
2023-01-11T10:21:35.934Z,7.20
2023-01-11T10:24:46.280Z,6.90
2023-01-11T10:28:23.087Z,7.00
2023-01-11T10:31:44.990Z,7.00
2023-01-11T10:35:10.388Z,7.00
2023-01-11T10:38:59.879Z,7.00
2023-01-11T10:42:10.459Z,7.00
2023-01-11T10:45:23.798Z,7.20
2023-01-11T10:48:38.310Z,7.40
2023-01-11T10:51:45.874Z,7.30
2023-01-11T10:54:53.329Z,7.10
2023-01-11T10:58:25.319Z,7.10
2023-01-11T11:01:49.163Z,7.00
2023-01-11T11:05:09.154Z,7.10
2023-01-11T11:08:26.475Z,7.10
2023-01-11T11:11:38.886Z,7.20
2023-01-11T11:15:16.641Z,7.30
2023-01-11T11:18:18.808Z,7.30
2023-01-11T11:21:28.590Z,7.30
2023-01-11T11:24:37.492Z,7.40
2023-01-11T11:27:43.287Z,7.60
2023-01-11T11:30:47.387Z,7.60
2023-01-11T11:33:49.897Z,7.70
2023-01-11T11:36:53.490Z,7.80
2023-01-11T11:39:56.299Z,8.00
2023-01-11T11:43:19.558Z,8.30
2023-01-11T11:46:27.307Z,8.70
2023-01-11T11:49:32.364Z,9.00
2023-01-11T11:52:34.682Z,9.40
2023-01-11T11:55:36.906Z,10.10
2023-01-11T11:58:41.569Z,10.50
2023-01-11T12:01:47.357Z,10.90
2023-01-11T12:04:51.060Z,10.90
2023-01-11T12:07:55.412Z,11.30
2023-01-11T12:11:04.135Z,11.50
2023-01-11T12:14:32.730Z,11.30
2023-01-11T12:17:35.474Z,11.50
2023-01-11T12:20:41.311Z,11.60
2023-01-11T12:23:43.638Z,11.80
2023-01-11T12:27:13.789Z,12.20
2023-01-11T12:30:49.992Z,12.20
2023-01-11T12:33:57.896Z,12.60
2023-01-11T12:37:06.095Z,12.80
2023-01-11T12:40:43.953Z,13.20
2023-01-11T12:44:10.947Z,13.70
2023-01-11T12:47:25.595Z,13.60
2023-01-11T12:50:51.082Z,14.10
2023-01-11T12:54:06.149Z,13.80
2023-01-11T12:57:56.402Z,14.00
2023-01-11T13:01:17.098Z,14.00
2023-01-11T13:04:37.061Z,13.80
2023-01-11T13:07:42.143Z,13.70
2023-01-11T13:10:47.676Z,13.50
2023-01-11T13:14:03.129Z,13.20
2023-01-11T13:17:20.853Z,12.90
2023-01-11T13:21:00.011Z,13.10
2023-01-11T13:24:08.680Z,12.80
2023-01-11T13:27:17.931Z,13.20
2023-01-11T13:30:24.356Z,13.40
2023-01-11T13:33:30.996Z,13.80
2023-01-11T13:36:42.839Z,14.00
2023-01-11T13:40:12.105Z,14.10
2023-01-11T13:43:36.703Z,14.10
2023-01-11T13:47:13.512Z,13.80
2023-01-11T13:50:27.842Z,13.90
2023-01-11T13:53:44.006Z,13.60
2023-01-11T13:57:06.727Z,13.40
2023-01-11T14:00:46.517Z,13.20
2023-01-11T14:03:52.069Z,13.50
2023-01-11T14:07:09.316Z,13.90
2023-01-11T14:10:31.293Z,14.00
2023-01-11T14:14:10.104Z,13.50
2023-01-11T14:17:30.082Z,13.60
2023-01-11T14:20:50.024Z,13.20
2023-01-11T14:23:54.832Z,12.90
2023-01-11T14:27:22.522Z,12.80
2023-01-11T14:30:43.727Z,13.30
2023-01-11T14:34:11.057Z,13.10
2023-01-11T14:37:31.096Z,13.00
2023-01-11T14:40:57.655Z,12.00
2023-01-11T14:44:26.843Z,11.30
2023-01-11T14:47:45.482Z,10.40
2023-01-11T14:51:09.042Z,9.70
2023-01-11T14:54:14.645Z,9.10
2023-01-11T14:57:41.047Z,8.40
2023-01-11T15:00:43.144Z,7.70
2023-01-11T15:03:49.311Z,7.20
2023-01-11T15:06:55.344Z,6.80
2023-01-11T15:09:59.467Z,6.30
2023-01-11T15:13:12.666Z,5.70
2023-01-11T15:16:48.437Z,5.50
2023-01-11T15:19:53.315Z,5.10
2023-01-11T15:23:06.295Z,4.80
2023-01-11T15:26:09.657Z,4.60
2023-01-11T15:29:40.453Z,4.50
2023-01-11T15:32:43.972Z,4.00
2023-01-11T15:36:02.749Z,3.50
2023-01-11T15:39:07.614Z,3.30
2023-01-11T15:42:15.508Z,3.20
2023-01-11T15:45:34.311Z,3.10
2023-01-11T15:49:03.510Z,3.10
2023-01-11T15:52:50.443Z,3.00
2023-01-11T15:56:27.918Z,2.90
2023-01-11T15:59:47.619Z,2.80
2023-01-11T16:03:08.366Z,2.50
2023-01-11T16:06:28.167Z,2.30
2023-01-11T16:09:45.721Z,2.00
2023-01-11T16:13:26.527Z,1.80
2023-01-11T16:16:40.230Z,1.70
2023-01-11T16:19:45.825Z,1.50
2023-01-11T16:23:07.447Z,1.40
2023-01-11T16:26:14.178Z,1.40
2023-01-11T16:29:23.066Z,1.30
2023-01-11T16:32:32.915Z,1.20
2023-01-11T16:35:35.060Z,1.20
2023-01-11T16:39:07.436Z,1.10
2023-01-11T16:42:11.127Z,1.10
2023-01-11T16:45:22.628Z,1.10
2023-01-11T16:48:25.707Z,1.00
2023-01-11T16:51:27.808Z,0.90
2023-01-11T16:54:33.373Z,0.80
2023-01-11T16:57:40.711Z,0.70
2023-01-11T17:00:43.396Z,0.60
2023-01-11T17:03:53.920Z,0.70
2023-01-11T17:07:15.887Z,0.70
2023-01-11T17:10:28.021Z,0.70
2023-01-11T17:13:54.412Z,0.70
2023-01-11T17:17:01.078Z,0.70
2023-01-11T17:20:05.115Z,0.70
2023-01-11T17:23:07.469Z,0.60
2023-01-11T17:26:18.549Z,0.60
2023-01-11T17:29:34.672Z,0.40
2023-01-11T17:32:40.728Z,0.40
2023-01-11T17:35:42.931Z,0.30
2023-01-11T17:38:45.527Z,0.30
2023-01-11T17:42:06.276Z,0.20
2023-01-11T17:45:21.835Z,0.20
2023-01-11T17:48:27.039Z,0.00
2023-01-11T17:51:34.264Z,-0.10
2023-01-11T17:54:36.636Z,-0.10
2023-01-11T17:57:39.136Z,-0.10
2023-01-11T18:00:47.073Z,-0.10
2023-01-11T18:03:52.015Z,-0.10
2023-01-11T18:06:56.812Z,-0.10
2023-01-11T18:10:02.185Z,-0.10
2023-01-11T18:13:05.479Z,-0.10
2023-01-11T18:16:07.600Z,-0.10
2023-01-11T18:19:40.367Z,-0.10
2023-01-11T18:23:05.021Z,-0.20
2023-01-11T18:26:27.193Z,-0.20
2023-01-11T18:29:38.911Z,-0.30
2023-01-11T18:32:43.491Z,-0.40
2023-01-11T18:35:49.090Z,-0.40
2023-01-11T18:38:51.999Z,-0.40
2023-01-11T18:42:10.151Z,-0.50
2023-01-11T18:45:13.415Z,-0.40
2023-01-11T18:48:16.297Z,-0.40
2023-01-11T18:51:31.567Z,-0.40
2023-01-11T18:54:35.571Z,-0.40
2023-01-11T18:57:37.968Z,-0.40
2023-01-11T19:00:43.190Z,-0.40
2023-01-11T19:03:46.384Z,-0.40
2023-01-11T19:06:49.657Z,-0.40
2023-01-11T19:09:54.867Z,-0.50
2023-01-11T19:12:57.965Z,-0.50
2023-01-11T19:16:02.625Z,-0.50
2023-01-11T19:19:06.129Z,-0.50
2023-01-11T19:22:10.602Z,-0.60
2023-01-11T19:25:13.343Z,-0.60
2023-01-11T19:28:15.855Z,-0.60
2023-01-11T19:31:18.740Z,-0.60
2023-01-11T19:34:22.175Z,-0.60
2023-01-11T19:37:27.606Z,-0.70
2023-01-11T19:40:29.888Z,-0.60
2023-01-11T19:43:32.642Z,-0.40
2023-01-11T19:46:35.441Z,-0.30
2023-01-11T19:49:38.570Z,-0.40
2023-01-11T19:52:41.567Z,-0.50
2023-01-11T19:55:44.384Z,-0.50
2023-01-11T19:58:47.406Z,-0.40
2023-01-11T20:01:50.534Z,0.10
2023-01-11T20:04:53.417Z,0.40
2023-01-11T20:07:57.965Z,0.20
2023-01-11T20:11:05.634Z,0.10
2023-01-11T20:14:08.542Z,0.10
2023-01-11T20:17:11.378Z,0.10
2023-01-11T20:20:16.890Z,0.00
2023-01-11T20:23:19.659Z,0.10
2023-01-11T20:26:23.314Z,0.30
2023-01-11T20:29:25.851Z,0.30
2023-01-11T20:32:40.842Z,0.20
2023-01-11T20:35:45.102Z,0.10
2023-01-11T20:42:08.904Z,0.20
2023-01-11T20:45:12.065Z,0.20
2023-01-11T20:48:15.062Z,0.20
2023-01-11T20:51:17.432Z,0.20
2023-01-11T20:54:20.273Z,0.30
2023-01-11T20:57:22.732Z,0.30
2023-01-11T21:00:25.511Z,0.10
2023-01-11T21:03:27.578Z,0.10
2023-01-11T21:06:31.820Z,0.00
2023-01-11T21:09:33.984Z,0.00
2023-01-11T21:12:36.140Z,0.00
2023-01-11T21:15:38.190Z,0.00
2023-01-11T21:18:43.771Z,0.00
2023-01-11T21:21:46.380Z,0.00
2023-01-11T21:24:49.213Z,0.10
2023-01-11T21:27:51.265Z,0.20
2023-01-11T21:31:01.492Z,0.30
2023-01-11T21:34:04.115Z,0.40
2023-01-11T21:37:06.159Z,0.40
2023-01-11T21:40:09.810Z,0.40
2023-01-11T21:43:16.163Z,0.50
2023-01-11T21:46:18.312Z,0.60
2023-01-11T21:49:22.499Z,0.60
2023-01-11T21:52:25.332Z,0.70
2023-01-11T21:55:27.438Z,0.70
2023-01-11T21:58:29.784Z,0.80
2023-01-11T22:01:31.943Z,0.90
2023-01-11T22:04:35.182Z,0.90
2023-01-11T22:07:39.643Z,1.00
2023-01-11T22:10:41.774Z,1.00
2023-01-11T22:13:44.281Z,1.10
2023-01-11T22:16:46.417Z,1.30
2023-01-11T22:19:48.539Z,1.30
2023-01-11T22:22:50.941Z,1.40
2023-01-11T22:25:53.107Z,1.50
2023-01-11T22:29:14.591Z,1.50
2023-01-11T22:32:17.169Z,1.40
2023-01-11T22:35:19.261Z,1.50
2023-01-11T22:38:21.399Z,1.50
2023-01-11T22:41:25.078Z,1.50
2023-01-11T22:44:27.494Z,1.60
2023-01-11T22:47:29.597Z,1.60
2023-01-11T22:50:32.085Z,1.70
2023-01-11T22:53:41.707Z,1.70
2023-01-11T22:56:43.748Z,1.70
2023-01-11T22:59:46.232Z,1.70
2023-01-11T23:02:48.325Z,1.80
2023-01-11T23:05:50.555Z,1.80
2023-01-11T23:08:53.327Z,1.80
2023-01-11T23:12:13.991Z,1.90
2023-01-11T23:15:16.175Z,1.90
2023-01-11T23:18:19.771Z,1.90
2023-01-11T23:21:21.852Z,1.90
2023-01-11T23:24:24.249Z,1.90
2023-01-11T23:27:26.377Z,1.90
2023-01-11T23:30:28.743Z,2.00
2023-01-11T23:33:30.901Z,2.00
2023-01-11T23:36:35.181Z,2.00
2023-01-11T23:39:37.329Z,2.00
2023-01-11T23:42:39.487Z,2.10
2023-01-11T23:45:41.606Z,2.10
2023-01-11T23:48:43.745Z,2.10
2023-01-11T23:51:46.216Z,2.20
2023-01-11T23:54:48.784Z,2.20
2023-01-11T23:58:09.054Z,2.20
